Aeroporto :
LOGIN :

Iscrizione | Disclaimer

   EN    FR    IT 

 










Sommario :    VFR   VFR Marginale   IFR   IFR Intensivo   IFR Molto Intensivo
Visibilità : 
Base nubi : 
>= 8 km
>= 3000ft
5 / 8 km
1000 / 3000 ft
1500m / 5 km
500 / 1000 ft
800 / 1500m
200 / 500 ft
< 800m
< 200 ft
Simboli :   Temporali  Nebbia  Neve Forte  Precipitazioni Forti  Vento > 20 kt
SIGMETs :   Varie  Temporali  Ghiacco  Turbolenza  Onda orograficha  Ceneri Vulcaniche







- Altitudine del aeroporto : 25 ft
- Codice IATA : TPS


LICT - Vincenzo Florio Trapani

ULTIMO METAR :
  • 181755Z 06002KT 9999 FEW025 13/12 Q1009

METARs OBSOLETI :
  • 181655Z VRB01KT 9999 FEW023 14/12 Q1009
  • 181555Z 05002KT 9999 FEW025 16/13 Q1009 RMK SCT SCT100 VIS MIN 9999 WIND THR13 06003KT BLU

TAF TAF LICT
Valido dal 18 a 18 ore il 19 a 03 ore UTC


181700Z 1818/1903 03006KT 9999 SCT020
Nessun NOTAM noto per questo aeroporto.



MetMap, La meteo Aeronautica in un colpo d'occhio ! - Copyright ORBIFLY Dicembre 2007 - Disclaimer

ORBIFLY MET'MAP TEAM :

Programmazione e sviluppo : Alexandra Zaïnal
Concezione e sviluppo : Baudouin d'Aumeries
Co-Programmazione e sviluppo : Marc-Olivier Méhu
Supporto tecnico e logistico : Manuel Goepfert
Aiuto per la traduzione : Arnaldo La Scala

Contatto : metmap@orbifly.com




FONTI E CREDITI :

   NOAA